Wetterdaten: Donnerstag, 13.09.2012
Datum Zeit Temperatur Luftfeuchte Luftdruck Regen Wind Richtung Richtung Sonnenschein Taupunkt Windchill
13.09.2012 00:03 5,3 C 70 % 1013,7 hPa 0,0 l/m 0,0 km/h (0 Bft) W-SW 245 0 min 0,3 C 5,3 C
13.09.2012 00:08 5,2 C 70 % 1013,7 hPa 0,0 l/m 0,0 km/h (0 Bft) W-SW 245 0 min 0,2 C 5,2 C
13.09.2012 00:13 5,1 C 70 % 1013,7 hPa 0,0 l/m 0,0 km/h (0 Bft) W-SW 245 0 min 0,1 C 5,1 C
13.09.2012 00:18 5,1 C 70 % 1013,7 hPa 0,0 l/m 0,0 km/h (0 Bft) W-SW 245 0 min 0,1 C 5,1 C
13.09.2012 00:23 5,1 C 71 % 1013,7 hPa 0,0 l/m 0,0 km/h (0 Bft) W-SW 245 0 min 0,3 C 5,1 C
13.09.2012 00:28 5,0 C 71 % 1013,7 hPa 0,0 l/m 0,0 km/h (0 Bft) W-SW 245 0 min 0,2 C 5,0 C
13.09.2012 00:33 4,9 C 72 % 1013,7 hPa 0,0 l/m 0,0 km/h (0 Bft) W-SW 240 0 min 0,3 C 4,9 C
13.09.2012 00:38 4,8 C 72 % 1013,7 hPa 0,0 l/m 0,0 km/h (0 Bft) W-SW 240 0 min 0,2 C 4,8 C
13.09.2012 00:43 4,7 C 72 % 1013,7 hPa 0,0 l/m 0,0 km/h (0 Bft) W-SW 240 0 min 0,1 C 4,7 C
13.09.2012 00:48 4,6 C 72 % 1013,7 hPa 0,0 l/m 0,0 km/h (0 Bft) W-SW 240 0 min -0,0 C 4,6 C
13.09.2012 00:53 4,5 C 72 % 1013,7 hPa 0,0 l/m 0,0 km/h (0 Bft) W-SW 240 0 min -0,1 C 4,5 C
13.09.2012 00:58 4,4 C 72 % 1013,7 hPa 0,0 l/m 0,0 km/h (0 Bft) W-SW 240 0 min -0,2 C 4,4 C
13.09.2012 01:03 4,3 C 72 % 1013,7 hPa 0,0 l/m 0,0 km/h (0 Bft) W-SW 240 0 min -0,3 C 4,3 C
13.09.2012 01:08 4,3 C 72 % 1013,7 hPa 0,0 l/m 0,0 km/h (0 Bft) W-SW 240 0 min -0,3 C 4,3 C
13.09.2012 01:13 4,2 C 72 % 1013,7 hPa 0,0 l/m 0,0 km/h (0 Bft) W-SW 240 0 min -0,4 C 4,2 C
13.09.2012 01:18 4,2 C 72 % 1013,7 hPa 0,0 l/m 0,0 km/h (0 Bft) W-SW 240 0 min -0,4 C 4,2 C
13.09.2012 01:24 4,2 C 72 % 1013,7 hPa 0,0 l/m 0,0 km/h (0 Bft) W-SW 240 0 min -0,4 C 4,2 C
13.09.2012 01:29 4,1 C 72 % 1013,7 hPa 0,0 l/m 0,0 km/h (0 Bft) W-SW 240 0 min -0,5 C 4,1 C
13.09.2012 01:34 4,0 C 73 % 1013,7 hPa 0,0 l/m 0,0 km/h (0 Bft) W-SW 240 0 min -0,4 C 4,0 C
13.09.2012 01:39 4,0 C 73 % 1013,7 hPa 0,0 l/m 0,0 km/h (0 Bft) W-SW 240 0 min -0,4 C 4,0 C
13.09.2012 01:44 4,0 C 73 % 1013,7 hPa 0,0 l/m 0,0 km/h (0 Bft) W-SW 240 0 min -0,4 C 4,0 C
13.09.2012 01:49 3,9 C 74 % 1013,7 hPa 0,0 l/m 0,0 km/h (0 Bft) W-SW 240 0 min -0,3 C 3,9 C
13.09.2012 01:54 3,9 C 74 % 1013,7 hPa 0,0 l/m 0,0 km/h (0 Bft) W-SW 240 0 min -0,3 C 3,9 C
13.09.2012 01:59 3,8 C 74 % 1013,7 hPa 0,0 l/m 0,0 km/h (0 Bft) W-SW 240 0 min -0,4 C 3,8 C
13.09.2012 02:04 3,7 C 74 % 1013,7 hPa 0,0 l/m 0,0 km/h (0 Bft) W-SW 245 0 min -0,5 C 3,7 C
13.09.2012 02:09 3,6 C 74 % 1013,7 hPa 0,0 l/m 0,0 km/h (0 Bft) W-SW 240 0 min -0,6 C 3,6 C
13.09.2012 02:14 3,6 C 74 % 1013,7 hPa 0,0 l/m 0,0 km/h (0 Bft) W-SW 240 0 min -0,6 C 3,6 C
13.09.2012 02:19 3,5 C 74 % 1013,7 hPa 0,0 l/m 0,0 km/h (0 Bft) W-SW 240 0 min -0,7 C 3,5 C
13.09.2012 02:24 3,5 C 74 % 1013,7 hPa 0,0 l/m 0,0 km/h (0 Bft) W-SW 240 0 min -0,7 C 3,5 C
13.09.2012 02:29 3,5 C 74 % 1013,7 hPa 0,0 l/m 0,0 km/h (0 Bft) W-SW 245 0 min -0,7 C 3,5 C
13.09.2012 02:34 3,4 C 74 % 1013,7 hPa 0,0 l/m 0,0 km/h (0 Bft) W-SW 250 0 min -0,8 C 3,4 C
13.09.2012 02:39 3,5 C 74 % 1013,7 hPa 0,0 l/m 0,0 km/h (0 Bft) W-SW 245 0 min -0,7 C 3,5 C
13.09.2012 02:44 3,5 C 74 % 1013,7 hPa 0,0 l/m 0,0 km/h (0 Bft) W-SW 245 0 min -0,7 C 3,5 C
13.09.2012 02:49 3,4 C 74 % 1013,7 hPa 0,0 l/m 0,0 km/h (0 Bft) W-SW 245 0 min -0,8 C 3,4 C
13.09.2012 02:54 3,4 C 74 % 1013,7 hPa 0,0 l/m 0,0 km/h (0 Bft) W-SW 245 0 min -0,8 C 3,4 C
13.09.2012 02:59 3,5 C 75 % 1013,7 hPa 0,0 l/m 0,0 km/h (0 Bft) W-SW 245 0 min -0,5 C 3,5 C
13.09.2012 03:04 3,5 C 75 % 1013,7 hPa 0,0 l/m 0,0 km/h (0 Bft) W-SW 245 0 min -0,5 C 3,5 C
13.09.2012 03:09 3,4 C 75 % 1013,7 hPa 0,0 l/m 0,0 km/h (0 Bft) W-SW 245 0 min -0,6 C 3,4 C
13.09.2012 03:14 3,2 C 74 % 1013,7 hPa 0,0 l/m 0,0 km/h (0 Bft) W-SW 240 0 min -1,0 C 3,2 C
13.09.2012 03:19 3,2 C 74 % 1013,7 hPa 0,0 l/m 0,0 km/h (0 Bft) W-SW 245 0 min -1,0 C 3,2 C
13.09.2012 03:24 3,0 C 74 % 1013,7 hPa 0,0 l/m 0,0 km/h (0 Bft) W-SW 245 0 min -1,2 C 3,0 C
13.09.2012 03:29 3,0 C 74 % 1013,7 hPa 0,0 l/m 0,0 km/h (0 Bft) W-SW 245 0 min -1,2 C 3,0 C
13.09.2012 03:34 2,9 C 75 % 1013,7 hPa 0,0 l/m 0,0 km/h (0 Bft) W 260 0 min -1,1 C 2,9 C
13.09.2012 03:39 2,9 C 75 % 1013,7 hPa 0,0 l/m 0,0 km/h (0 Bft) W-SW 245 0 min -1,1 C 2,9 C
13.09.2012 03:44 2,9 C 76 % 1013,7 hPa 0,0 l/m 0,0 km/h (0 Bft) W-SW 245 0 min -0,9 C 2,9 C
13.09.2012 03:49 2,9 C 76 % 1013,7 hPa 0,0 l/m 0,0 km/h (0 Bft) W-SW 245 0 min -0,9 C 2,9 C
13.09.2012 03:54 2,9 C 76 % 1013,7 hPa 0,0 l/m 0,0 km/h (0 Bft) W-SW 245 0 min -0,9 C 2,9 C
13.09.2012 03:59 2,8 C 76 % 1013,7 hPa 0,0 l/m 0,0 km/h (0 Bft) W-SW 240 0 min -1,0 C 2,8 C
13.09.2012 04:04 2,7 C 75 % 1013,7 hPa 0,0 l/m 0,0 km/h (0 Bft) W-SW 240 0 min -1,3 C 2,7 C
13.09.2012 04:09 2,6 C 75 % 1013,7 hPa 0,0 l/m 0,0 km/h (0 Bft) W-SW 240 0 min -1,4 C 2,6 C
13.09.2012 04:14 2,6 C 75 % 1013,7 hPa 0,0 l/m 0,0 km/h (0 Bft) W-SW 240 0 min -1,4 C 2,6 C
13.09.2012 04:19 2,6 C 75 % 1013,7 hPa 0,0 l/m 0,0 km/h (0 Bft) W-SW 240 0 min -1,4 C 2,6 C
13.09.2012 04:24 2,6 C 76 % 1013,7 hPa 0,0 l/m 0,0 km/h (0 Bft) W-SW 240 0 min -1,2 C 2,6 C
13.09.2012 04:29 2,6 C 76 % 1013,7 hPa 0,0 l/m 0,0 km/h (0 Bft) W-SW 240 0 min -1,2 C 2,6 C
13.09.2012 04:34 2,6 C 76 % 1013,7 hPa 0,0 l/m 0,0 km/h (0 Bft) W-SW 240 0 min -1,2 C 2,6 C
13.09.2012 04:39 2,6 C 76 % 1013,7 hPa 0,0 l/m 0,0 km/h (0 Bft) W-SW 240 0 min -1,2 C 2,6 C
13.09.2012 04:44 2,7 C 76 % 1013,7 hPa 0,0 l/m 0,0 km/h (0 Bft) W-SW 240 0 min -1,1 C 2,7 C
13.09.2012 04:49 2,6 C 76 % 1013,7 hPa 0,0 l/m 0,0 km/h (0 Bft) W-SW 245 0 min -1,2 C 2,6 C
13.09.2012 04:54 2,5 C 76 % 1013,7 hPa 0,0 l/m 0,0 km/h (0 Bft) W-SW 255 0 min -1,3 C 2,5 C
13.09.2012 04:59 2,4 C 76 % 1013,7 hPa 0,0 l/m 0,0 km/h (0 Bft) W-SW 250 0 min -1,4 C 2,4 C
13.09.2012 05:04 2,4 C 76 % 1013,7 hPa 0,0 l/m 0,0 km/h (0 Bft) W-SW 245 0 min -1,4 C 2,4 C
13.09.2012 05:09 2,4 C 76 % 1013,7 hPa 0,0 l/m 0,0 km/h (0 Bft) W-SW 245 0 min -1,4 C 2,4 C
13.09.2012 05:14 2,3 C 76 % 1013,7 hPa 0,0 l/m 0,0 km/h (0 Bft) W-SW 245 0 min -1,5 C 2,3 C
13.09.2012 05:19 2,1 C 76 % 1013,7 hPa 0,0 l/m 0,0 km/h (0 Bft) W-SW 250 0 min -1,7 C 2,1 C
13.09.2012 05:24 2,0 C 77 % 1013,7 hPa 0,0 l/m 0,0 km/h (0 Bft) W 260 0 min -1,6 C 2,0 C
13.09.2012 05:29 2,0 C 77 % 1013,7 hPa 0,0 l/m 0,0 km/h (0 Bft) W 260 0 min -1,6 C 2,0 C
13.09.2012 05:34 1,9 C 78 % 1013,7 hPa 0,0 l/m 0,0 km/h (0 Bft) W 260 0 min -1,5 C 1,9 C
13.09.2012 05:39 2,0 C 77 % 1013,7 hPa 0,0 l/m 0,0 km/h (0 Bft) W-SW 245 0 min -1,6 C 2,0 C
13.09.2012 05:44 2,0 C 77 % 1013,7 hPa 0,0 l/m 0,0 km/h (0 Bft) W-SW 255 0 min -1,6 C 2,0 C
13.09.2012 05:49 2,1 C 78 % 1013,7 hPa 0,0 l/m 0,0 km/h (0 Bft) W-SW 255 0 min -1,3 C 2,1 C
13.09.2012 05:54 2,2 C 78 % 1013,7 hPa 0,0 l/m 0,0 km/h (0 Bft) W-SW 245 0 min -1,2 C 2,2 C
13.09.2012 05:59 2,1 C 77 % 1013,7 hPa 0,0 l/m 0,0 km/h (0 Bft) W-SW 240 0 min -1,5 C 2,1 C
13.09.2012 06:04 2,1 C 77 % 1013,7 hPa 0,0 l/m 0,0 km/h (0 Bft) W 260 0 min -1,5 C 2,1 C
13.09.2012 06:09 2,0 C 77 % 1013,7 hPa 0,0 l/m 0,0 km/h (0 Bft) W 260 0 min -1,6 C 2,0 C
13.09.2012 06:14 1,8 C 78 % 1013,7 hPa 0,0 l/m 0,0 km/h (0 Bft) W-SW 250 0 min -1,6 C 1,8 C
13.09.2012 06:19 1,8 C 78 % 1014,7 hPa 0,0 l/m 0,0 km/h (0 Bft) W-SW 240 0 min -1,6 C 1,8 C
13.09.2012 06:24 1,7 C 78 % 1014,7 hPa 0,0 l/m 0,0 km/h (0 Bft) W-SW 240 0 min -1,7 C 1,7 C
13.09.2012 06:29 1,7 C 78 % 1014,7 hPa 0,0 l/m 0,0 km/h (0 Bft) W-SW 240 0 min -1,7 C 1,7 C
13.09.2012 06:34 1,6 C 78 % 1014,7 hPa 0,0 l/m 0,0 km/h (0 Bft) W 260 0 min -1,8 C 1,6 C
13.09.2012 06:38 1,6 C 78 % 1014,7 hPa 0,0 l/m 0,0 km/h (0 Bft) W-SW 250 0 min -1,8 C 1,6 C
13.09.2012 06:43 1,5 C 78 % 1014,7 hPa 0,0 l/m 0,0 km/h (0 Bft) W-SW 250 0 min -1,9 C 1,5 C
13.09.2012 06:48 1,5 C 78 % 1014,7 hPa 0,0 l/m 0,0 km/h (0 Bft) W-SW 250 0 min -1,9 C 1,5 C
13.09.2012 06:53 1,5 C 78 % 1014,7 hPa 0,0 l/m 0,0 km/h (0 Bft) W-SW 245 0 min -1,9 C 1,5 C
13.09.2012 06:58 1,5 C 78 % 1014,7 hPa 0,0 l/m 0,0 km/h (0 Bft) W-SW 240 0 min -1,9 C 1,5 C
13.09.2012 07:03 1,6 C 78 % 1014,7 hPa 0,0 l/m 0,0 km/h (0 Bft) W-SW 240 0 min -1,8 C 1,6 C
13.09.2012 07:08 1,6 C 78 % 1014,7 hPa 0,0 l/m 0,0 km/h (0 Bft) W 260 0 min -1,8 C 1,6 C
13.09.2012 07:13 1,6 C 78 % 1014,7 hPa 0,0 l/m 0,0 km/h (0 Bft) W-SW 240 0 min -1,8 C 1,6 C
13.09.2012 07:18 1,6 C 78 % 1014,7 hPa 0,0 l/m 0,0 km/h (0 Bft) W-SW 240 0 min -1,8 C 1,6 C
13.09.2012 07:23 1,6 C 78 % 1014,7 hPa 0,0 l/m 0,0 km/h (0 Bft) W-SW 240 0 min -1,8 C 1,6 C
13.09.2012 07:28 1,9 C 79 % 1014,7 hPa 0,0 l/m 0,0 km/h (0 Bft) W-SW 240 0 min -1,3 C 1,9 C
13.09.2012 07:33 2,7 C 80 % 1014,7 hPa 0,0 l/m 0,0 km/h (0 Bft) W-SW 240 0 min -0,4 C 2,7 C
13.09.2012 07:38 3,2 C 81 % 1014,7 hPa 0,0 l/m 0,0 km/h (0 Bft) W-SW 240 0 min 0,3 C 3,2 C
13.09.2012 07:43 3,5 C 81 % 1014,7 hPa 0,0 l/m 0,0 km/h (0 Bft) W-SW 240 0 min 0,6 C 3,5 C
13.09.2012 07:48 3,9 C 82 % 1014,7 hPa 0,0 l/m 0,0 km/h (0 Bft) W-SW 240 0 min 1,1 C 3,9 C
13.09.2012 07:53 4,5 C 81 % 1014,7 hPa 0,0 l/m 0,0 km/h (0 Bft) W-SW 250 0 min 1,5 C 4,5 C
13.09.2012 07:59 4,6 C 81 % 1014,7 hPa 0,0 l/m 0,0 km/h (0 Bft) W-SW 240 0 min 1,6 C 4,6 C
13.09.2012 08:04 4,5 C 79 % 1014,7 hPa 0,0 l/m 0,0 km/h (0 Bft) W-SW 240 0 min 1,2 C 4,5 C
13.09.2012 08:09 4,1 C 77 % 1014,7 hPa 0,0 l/m 0,0 km/h (0 Bft) W-SW 245 0 min 0,4 C 4,1 C
13.09.2012 08:14 3,9 C 78 % 1014,7 hPa 0,0 l/m 0,0 km/h (0 Bft) W-SW 240 0 min 0,4 C 3,9 C
13.09.2012 08:19 3,6 C 78 % 1014,7 hPa 0,0 l/m 3,9 km/h (1 Bft) W-SW 240 0 min 0,1 C 3,6 C
13.09.2012 08:24 3,5 C 79 % 1014,7 hPa 0,0 l/m 5,2 km/h (1 Bft) W-SW 245 0 min 0,2 C 3,5 C
13.09.2012 08:29 3,5 C 80 % 1014,7 hPa 0,0 l/m 4,7 km/h (1 Bft) W-SW 255 0 min 0,4 C 3,5 C
13.09.2012 08:34 3,8 C 81 % 1014,7 hPa 0,0 l/m 0,0 km/h (0 Bft) W-SW 240 0 min 0,8 C 3,8 C
13.09.2012 08:39 4,6 C 80 % 1014,7 hPa 0,0 l/m 0,0 km/h (0 Bft) SW 235 0 min 1,5 C 4,6 C
13.09.2012 08:44 5,3 C 80 % 1014,7 hPa 0,0 l/m 4,8 km/h (1 Bft) W 275 0 min 2,1 C 5,3 C
13.09.2012 08:49 5,4 C 79 % 1014,7 hPa 0,0 l/m 0,6 km/h (0 Bft) W-SW 240 0 min 2,1 C 5,4 C
13.09.2012 08:54 5,9 C 79 % 1014,7 hPa 0,0 l/m 0,0 km/h (0 Bft) SW 225 0 min 2,5 C 5,9 C
13.09.2012 08:59 5,9 C 79 % 1014,7 hPa 0,0 l/m 0,4 km/h (0 Bft) W-SW 240 0 min 2,5 C 5,9 C
13.09.2012 09:04 5,9 C 79 % 1014,7 hPa 0,0 l/m 0,0 km/h (0 Bft) SW 225 0 min 2,5 C 5,9 C
13.09.2012 09:09 6,1 C 77 % 1014,7 hPa 0,0 l/m 0,0 km/h (0 Bft) SW 225 0 min 2,4 C 6,1 C
13.09.2012 09:13 6,1 C 77 % 1014,7 hPa 0,0 l/m 0,0 km/h (0 Bft) SW 225 0 min 2,4 C 6,1 C
13.09.2012 09:18 6,1 C 77 % 1014,7 hPa 0,0 l/m 0,0 km/h (0 Bft) SW 230 0 min 2,4 C 6,1 C
13.09.2012 09:24 6,2 C 77 % 1014,7 hPa 0,0 l/m 0,6 km/h (0 Bft) SW 230 0 min 2,5 C 6,2 C
13.09.2012 09:29 6,1 C 77 % 1015,7 hPa 0,0 l/m 0,5 km/h (0 Bft) SW 235 0 min 2,4 C 6,1 C
13.09.2012 09:34 6,0 C 76 % 1015,7 hPa 0,0 l/m 0,0 km/h (0 Bft) SW 230 0 min 2,1 C 6,0 C
13.09.2012 09:39 6,6 C 77 % 1015,7 hPa 0,0 l/m 0,0 km/h (0 Bft) SW 225 0 min 2,9 C 6,6 C
13.09.2012 09:44 7,8 C 77 % 1015,7 hPa 0,0 l/m 0,1 km/h (0 Bft) SW 230 0 min 4,0 C 7,8 C
13.09.2012 09:48 8,5 C 75 % 1015,7 hPa 0,0 l/m 0,0 km/h (0 Bft) S 170 0 min 4,3 C 8,5 C
13.09.2012 09:53 8,9 C 75 % 1015,7 hPa 0,0 l/m 0,1 km/h (0 Bft) S 170 0 min 4,7 C 8,9 C
13.09.2012 09:59 9,2 C 74 % 1015,7 hPa 0,0 l/m 0,0 km/h (0 Bft) S 175 0 min 4,8 C 9,2 C
13.09.2012 10:04 9,8 C 73 % 1015,7 hPa 0,0 l/m 0,4 km/h (0 Bft) S 180 0 min 5,2 C 9,8 C
13.09.2012 10:09 10,0 C 72 % 1015,7 hPa 0,0 l/m 0,4 km/h (0 Bft) S 180 0 min 5,2 C 10,0 C
13.09.2012 10:14 10,4 C 72 % 1015,7 hPa 0,0 l/m 0,1 km/h (0 Bft) S 185 0 min 5,6 C 10,4 C
13.09.2012 10:19 11,1 C 71 % 1015,7 hPa 0,0 l/m 0,1 km/h (0 Bft) SW 220 0 min 6,0 C 11,1 C
13.09.2012 10:23 11,3 C 71 % 1015,7 hPa 0,0 l/m 7,0 km/h (2 Bft) S-SW 205 0 min 6,2 C 10,9 C
13.09.2012 10:28 11,7 C 71 % 1015,7 hPa 0,0 l/m 1,0 km/h (0 Bft) S-SW 200 0 min 6,6 C 11,7 C
13.09.2012 10:34 12,4 C 70 % 1015,7 hPa 0,0 l/m 0,7 km/h (0 Bft) S 175 0 min 7,1 C 12,4 C
13.09.2012 10:39 13,0 C 69 % 1015,7 hPa 0,0 l/m 0,1 km/h (0 Bft) S 185 0 min 7,4 C 13,0 C
13.09.2012 10:44 13,3 C 69 % 1015,7 hPa 0,0 l/m 0,3 km/h (0 Bft) S-SO 160 0 min 7,7 C 13,3 C
13.09.2012 10:49 14,0 C 68 % 1015,7 hPa 0,0 l/m 0,0 km/h (0 Bft) SO 130 0 min 8,2 C 14,0 C
13.09.2012 10:54 13,7 C 65 % 1015,7 hPa 0,0 l/m 0,2 km/h (0 Bft) S-SO 155 0 min 7,2 C 13,7 C
13.09.2012 10:59 13,5 C 64 % 1015,7 hPa 0,0 l/m 0,1 km/h (0 Bft) S 185 0 min 6,8 C 13,5 C
13.09.2012 11:04 13,3 C 63 % 1015,7 hPa 0,0 l/m 0,1 km/h (0 Bft) S 190 0 min 6,4 C 13,3 C
13.09.2012 11:09 13,4 C 63 % 1015,7 hPa 0,0 l/m 0,1 km/h (0 Bft) S 185 0 min 6,5 C 13,4 C
13.09.2012 11:14 13,6 C 64 % 1015,7 hPa 0,0 l/m 0,3 km/h (0 Bft) S 185 0 min 6,9 C 13,6 C
13.09.2012 11:19 14,2 C 63 % 1015,7 hPa 0,0 l/m 0,1 km/h (0 Bft) S-SO 165 0 min 7,3 C 14,2 C
13.09.2012 11:24 14,2 C 62 % 1015,7 hPa 0,0 l/m 0,1 km/h (0 Bft) S-SO 165 0 min 7,0 C 14,2 C
13.09.2012 11:29 14,3 C 62 % 1015,7 hPa 0,0 l/m 0,1 km/h (0 Bft) S-SO 150 0 min 7,1 C 14,3 C
13.09.2012 11:34 14,5 C 61 % 1015,7 hPa 0,0 l/m 0,6 km/h (0 Bft) S-SO 150 0 min 7,1 C 14,5 C
13.09.2012 11:38 15,4 C 61 % 1015,7 hPa 0,0 l/m 0,0 km/h (0 Bft) O-SO 120 0 min 7,9 C 15,4 C
13.09.2012 11:43 16,1 C 61 % 1015,7 hPa 0,0 l/m 0,0 km/h (0 Bft) S 180 0 min 8,6 C 16,1 C
13.09.2012 11:48 16,1 C 57 % 1015,7 hPa 0,0 l/m 5,4 km/h (1 Bft) W 260 0 min 7,6 C 16,1 C
13.09.2012 11:53 15,7 C 55 % 1015,7 hPa 0,0 l/m 6,8 km/h (2 Bft) W-NW 285 0 min 6,7 C 15,5 C
13.09.2012 11:58 15,5 C 55 % 1015,7 hPa 0,0 l/m 5,0 km/h (1 Bft) W 265 0 min 6,5 C 15,5 C
13.09.2012 12:03 15,8 C 57 % 1015,7 hPa 0,0 l/m 0,1 km/h (0 Bft) S 180 0 min 7,3 C 15,8 C
13.09.2012 12:08 16,2 C 55 % 1015,7 hPa 0,0 l/m 6,1 km/h (2 Bft) W-SW 245 0 min 7,2 C 16,2 C
13.09.2012 12:13 16,1 C 56 % 1015,7 hPa 0,0 l/m 0,0 km/h (0 Bft) W 270 0 min 7,3 C 16,1 C
13.09.2012 12:18 16,2 C 55 % 1015,7 hPa 0,0 l/m 0,4 km/h (0 Bft) S 185 0 min 7,2 C 16,2 C
13.09.2012 12:23 16,5 C 53 % 1015,7 hPa 0,0 l/m 9,3 km/h (2 Bft) N-NW 330 0 min 6,9 C 15,1 C
13.09.2012 12:28 15,6 C 53 % 1015,7 hPa 0,0 l/m 11,3 km/h (2 Bft) W-NW 300 0 min 6,1 C 13,2 C
13.09.2012 12:33 15,4 C 55 % 1015,7 hPa 0,0 l/m 2,0 km/h (1 Bft) W 270 0 min 6,4 C 15,4 C
13.09.2012 12:38 15,6 C 56 % 1015,7 hPa 0,0 l/m 1,6 km/h (1 Bft) W 280 0 min 6,9 C 15,6 C
13.09.2012 12:43 16,0 C 56 % 1015,7 hPa 0,0 l/m 11,9 km/h (2 Bft) W-SW 255 0 min 7,2 C 13,5 C
13.09.2012 12:48 16,4 C 55 % 1015,7 hPa 0,0 l/m 9,7 km/h (2 Bft) W-NW 295 0 min 7,3 C 14,8 C
13.09.2012 12:53 16,6 C 55 % 1015,7 hPa 0,0 l/m 6,3 km/h (2 Bft) SW 230 0 min 7,5 C 16,6 C
13.09.2012 12:59 16,8 C 55 % 1015,7 hPa 0,0 l/m 1,8 km/h (1 Bft) W-SW 255 0 min 7,7 C 16,8 C
13.09.2012 13:04 16,8 C 53 % 1015,7 hPa 0,0 l/m 10,6 km/h (2 Bft) W-NW 295 0 min 7,2 C 14,9 C
13.09.2012 13:09 17,0 C 50 % 1015,7 hPa 0,0 l/m 14,8 km/h (3 Bft) N-NW 330 0 min 6,5 C 13,7 C
13.09.2012 13:14 17,0 C 50 % 1015,7 hPa 0,0 l/m 13,3 km/h (3 Bft) N-NW 340 0 min 6,5 C 14,1 C
13.09.2012 13:19 18,1 C 51 % 1015,7 hPa 0,0 l/m 10,6 km/h (2 Bft) W-NW 295 0 min 7,8 C 16,3 C
13.09.2012 13:24 18,1 C 51 % 1015,7 hPa 0,0 l/m 14,2 km/h (3 Bft) W-NW 300 0 min 7,8 C 15,2 C
13.09.2012 13:29 18,7 C 47 % 1015,7 hPa 0,0 l/m 15,0 km/h (3 Bft) NW 325 0 min 7,2 C 15,7 C
13.09.2012 13:34 18,7 C 47 % 1015,7 hPa 0,0 l/m 13,3 km/h (3 Bft) NW 310 0 min 7,2 C 16,1 C
13.09.2012 13:39 18,5 C 47 % 1015,7 hPa 0,0 l/m 10,1 km/h (2 Bft) W-NW 300 0 min 7,0 C 16,9 C
13.09.2012 13:44 18,1 C 46 % 1015,7 hPa 0,0 l/m 15,0 km/h (3 Bft) N-NW 340 0 min 6,3 C 14,9 C
13.09.2012 13:49 18,1 C 48 % 1016,7 hPa 0,0 l/m 10,2 km/h (2 Bft) W-NW 290 0 min 6,9 C 16,5 C
13.09.2012 13:54 18,6 C 48 % 1016,7 hPa 0,0 l/m 15,6 km/h (3 Bft) W-NW 300 0 min 7,4 C 15,4 C
13.09.2012 13:59 18,9 C 49 % 1016,7 hPa 0,0 l/m 7,8 km/h (2 Bft) W-NW 295 0 min 7,9 C 18,3 C
13.09.2012 14:04 19,2 C 48 % 1016,7 hPa 0,0 l/m 14,0 km/h (3 Bft) W-NW 285 0 min 7,9 C 16,5 C
13.09.2012 14:09 19,4 C 47 % 1016,7 hPa 0,0 l/m 9,8 km/h (2 Bft) W 275 0 min 7,8 C 18,0 C
13.09.2012 14:14 19,4 C 47 % 1016,7 hPa 0,0 l/m 16,0 km/h (3 Bft) N-NW 330 0 min 7,8 C 16,3 C
13.09.2012 14:19 19,4 C 45 % 1016,7 hPa 0,0 l/m 10,9 km/h (2 Bft) W-NW 290 0 min 7,2 C 17,7 C
13.09.2012 14:24 19,5 C 46 % 1016,7 hPa 0,0 l/m 12,0 km/h (2 Bft) W 270 0 min 7,6 C 17,5 C
13.09.2012 14:29 19,5 C 44 % 1015,7 hPa 0,0 l/m 13,3 km/h (3 Bft) N-NW 345 0 min 6,9 C 17,1 C
13.09.2012 14:34 19,5 C 45 % 1015,7 hPa 0,0 l/m 12,6 km/h (3 Bft) NW 325 0 min 7,2 C 17,3 C
13.09.2012 14:39 18,9 C 45 % 1015,7 hPa 0,0 l/m 8,5 km/h (2 Bft) W-NW 300 0 min 6,7 C 18,0 C
13.09.2012 14:44 18,7 C 47 % 1015,7 hPa 0,0 l/m 0,6 km/h (0 Bft) SW 235 0 min 7,2 C 18,7 C
13.09.2012 14:49 18,7 C 47 % 1015,7 hPa 0,0 l/m 1,3 km/h (1 Bft) SW 215 0 min 7,2 C 18,7 C
13.09.2012 14:54 18,4 C 48 % 1015,7 hPa 0,0 l/m 8,7 km/h (2 Bft) W-NW 290 0 min 7,2 C 17,4 C
13.09.2012 14:59 18,0 C 47 % 1015,7 hPa 0,0 l/m 10,5 km/h (2 Bft) W-SW 255 0 min 6,5 C 16,2 C
13.09.2012 15:04 17,5 C 48 % 1015,7 hPa 0,0 l/m 12,7 km/h (3 Bft) NW 310 0 min 6,4 C 14,9 C
13.09.2012 15:09 16,9 C 50 % 1016,7 hPa 0,0 l/m 10,4 km/h (2 Bft) NW 320 0 min 6,4 C 15,1 C
13.09.2012 15:14 16,6 C 51 % 1016,7 hPa 0,0 l/m 11,2 km/h (2 Bft) NW 310 0 min 6,4 C 14,4 C
13.09.2012 15:19 16,7 C 52 % 1016,7 hPa 0,0 l/m 7,4 km/h (2 Bft) W 265 0 min 6,8 C 16,2 C
13.09.2012 15:24 16,6 C 52 % 1016,7 hPa 0,0 l/m 10,8 km/h (2 Bft) W-NW 285 0 min 6,7 C 14,6 C
13.09.2012 15:29 16,6 C 52 % 1016,7 hPa 0,0 l/m 4,5 km/h (1 Bft) W 270 0 min 6,7 C 16,6 C
13.09.2012 15:34 16,2 C 52 % 1016,7 hPa 0,0 l/m 8,5 km/h (2 Bft) NW 310 0 min 6,3 C 15,1 C
13.09.2012 15:39 16,2 C 53 % 1016,7 hPa 0,0 l/m 1,1 km/h (1 Bft) W-SW 250 0 min 6,6 C 16,2 C
13.09.2012 15:44 16,0 C 53 % 1016,7 hPa 0,0 l/m 0,6 km/h (0 Bft) SW 235 0 min 6,4 C 16,0 C
13.09.2012 15:49 15,8 C 55 % 1016,7 hPa 0,0 l/m 8,3 km/h (2 Bft) W 275 0 min 6,8 C 14,8 C
13.09.2012 15:54 15,7 C 55 % 1016,7 hPa 0,0 l/m 8,5 km/h (2 Bft) W 280 0 min 6,7 C 14,6 C
13.09.2012 15:59 15,6 C 55 % 1016,7 hPa 0,0 l/m 8,4 km/h (2 Bft) W-NW 290 0 min 6,6 C 14,5 C
13.09.2012 16:04 15,5 C 56 % 1016,7 hPa 0,0 l/m 10,2 km/h (2 Bft) W 275 0 min 6,8 C 13,6 C
13.09.2012 16:09 15,4 C 57 % 1016,7 hPa 0,0 l/m 7,9 km/h (2 Bft) NW 320 0 min 6,9 C 14,6 C
13.09.2012 16:14 15,3 C 57 % 1016,7 hPa 0,0 l/m 7,9 km/h (2 Bft) W 280 0 min 6,8 C 14,5 C
13.09.2012 16:19 15,2 C 57 % 1016,7 hPa 0,0 l/m 5,4 km/h (1 Bft) W 275 0 min 6,7 C 15,2 C
13.09.2012 16:24 15,1 C 57 % 1016,7 hPa 0,0 l/m 8,2 km/h (2 Bft) NW 310 0 min 6,6 C 14,1 C
13.09.2012 16:29 15,0 C 58 % 1016,7 hPa 0,0 l/m 8,1 km/h (2 Bft) N-NW 330 0 min 6,8 C 14,0 C
13.09.2012 16:34 15,0 C 58 % 1016,7 hPa 0,0 l/m 5,6 km/h (1 Bft) W 270 0 min 6,8 C 15,0 C
13.09.2012 16:39 15,0 C 58 % 1016,7 hPa 0,0 l/m 5,5 km/h (1 Bft) W 275 0 min 6,8 C 15,0 C
13.09.2012 16:44 15,0 C 58 % 1016,7 hPa 0,0 l/m 5,3 km/h (1 Bft) W-SW 250 0 min 6,8 C 15,0 C
13.09.2012 16:49 15,0 C 59 % 1016,7 hPa 0,0 l/m 5,5 km/h (1 Bft) W 265 0 min 7,1 C 15,0 C
13.09.2012 16:54 14,9 C 60 % 1016,7 hPa 0,0 l/m 0,0 km/h (0 Bft) W-NW 285 0 min 7,2 C 14,9 C
13.09.2012 16:59 14,8 C 60 % 1016,7 hPa 0,0 l/m 0,0 km/h (0 Bft) W-SW 255 0 min 7,1 C 14,8 C
13.09.2012 17:04 14,8 C 60 % 1016,7 hPa 0,0 l/m 0,0 km/h (0 Bft) NW 305 0 min 7,1 C 14,8 C
13.09.2012 17:09 14,9 C 60 % 1016,7 hPa 0,0 l/m 0,0 km/h (0 Bft) NW 305 0 min 7,2 C 14,9 C
13.09.2012 17:14 14,9 C 60 % 1016,7 hPa 0,0 l/m 0,0 km/h (0 Bft) W-NW 300 0 min 7,2 C 14,9 C
13.09.2012 17:19 15,0 C 59 % 1016,7 hPa 0,0 l/m 0,0 km/h (0 Bft) W-NW 300 0 min 7,1 C 15,0 C
13.09.2012 17:24 15,2 C 59 % 1016,7 hPa 0,0 l/m 0,0 km/h (0 Bft) W-NW 300 0 min 7,2 C 15,2 C
13.09.2012 17:29 15,3 C 59 % 1016,7 hPa 0,0 l/m 0,0 km/h (0 Bft) W-NW 300 0 min 7,3 C 15,3 C
13.09.2012 17:34 15,4 C 59 % 1016,7 hPa 0,0 l/m 0,0 km/h (0 Bft) W-NW 295 0 min 7,4 C 15,4 C
13.09.2012 17:39 15,5 C 59 % 1016,7 hPa 0,0 l/m 0,0 km/h (0 Bft) W-NW 300 0 min 7,5 C 15,5 C
13.09.2012 17:44 15,5 C 60 % 1016,7 hPa 0,0 l/m 0,0 km/h (0 Bft) W-NW 300 0 min 7,8 C 15,5 C
13.09.2012 17:49 15,6 C 60 % 1016,7 hPa 0,0 l/m 0,0 km/h (0 Bft) W-NW 300 0 min 7,9 C 15,6 C
13.09.2012 17:54 15,6 C 60 % 1016,7 hPa 0,0 l/m 0,0 km/h (0 Bft) W-NW 300 0 min 7,9 C 15,6 C
13.09.2012 17:59 15,9 C 60 % 1016,7 hPa 0,0 l/m 0,0 km/h (0 Bft) W-NW 300 0 min 8,1 C 15,9 C
13.09.2012 18:04 15,9 C 60 % 1016,7 hPa 0,0 l/m 0,0 km/h (0 Bft) W-NW 295 0 min 8,1 C 15,9 C
13.09.2012 18:08 16,1 C 59 % 1016,7 hPa 0,0 l/m 0,0 km/h (0 Bft) W-NW 295 0 min 8,1 C 16,1 C
13.09.2012 18:13 16,3 C 59 % 1016,7 hPa 0,0 l/m 0,0 km/h (0 Bft) W-NW 295 0 min 8,3 C 16,3 C
13.09.2012 18:18 16,3 C 59 % 1016,7 hPa 0,0 l/m 0,0 km/h (0 Bft) NW 305 0 min 8,3 C 16,3 C
13.09.2012 18:23 16,2 C 58 % 1016,7 hPa 0,0 l/m 0,0 km/h (0 Bft) NW 310 0 min 7,9 C 16,2 C
13.09.2012 18:28 16,1 C 58 % 1016,7 hPa 0,0 l/m 0,0 km/h (0 Bft) NW 315 0 min 7,8 C 16,1 C
13.09.2012 18:33 15,5 C 59 % 1016,7 hPa 0,0 l/m 0,0 km/h (0 Bft) W-NW 295 0 min 7,5 C 15,5 C
13.09.2012 18:39 15,3 C 60 % 1016,7 hPa 0,0 l/m 0,2 km/h (0 Bft) W-NW 300 0 min 7,6 C 15,3 C
13.09.2012 18:44 14,9 C 63 % 1016,7 hPa 0,0 l/m 12,6 km/h (3 Bft) N-NW 335 0 min 7,9 C 11,9 C
13.09.2012 18:49 14,6 C 64 % 1016,7 hPa 0,0 l/m 16,1 km/h (3 Bft) N 350 0 min 7,9 C 10,3 C
13.09.2012 18:54 14,4 C 64 % 1016,7 hPa 0,0 l/m 15,5 km/h (3 Bft) N 350 0 min 7,7 C 10,3 C
13.09.2012 18:59 14,2 C 64 % 1016,7 hPa 0,0 l/m 0,0 km/h (0 Bft) W 260 0 min 7,5 C 14,2 C
13.09.2012 19:04 14,0 C 65 % 1017,7 hPa 0,0 l/m 6,7 km/h (2 Bft) W 280 0 min 7,5 C 13,8 C
13.09.2012 19:08 14,0 C 66 % 1017,7 hPa 0,0 l/m 0,4 km/h (0 Bft) W 260 0 min 7,7 C 14,0 C
13.09.2012 19:13 13,8 C 68 % 1017,7 hPa 0,0 l/m 6,3 km/h (2 Bft) W-NW 300 0 min 8,0 C 13,8 C
13.09.2012 19:19 13,6 C 68 % 1017,7 hPa 0,0 l/m 0,9 km/h (0 Bft) W 270 0 min 7,8 C 13,6 C
13.09.2012 19:24 13,5 C 69 % 1017,7 hPa 0,0 l/m 0,4 km/h (0 Bft) W-NW 290 0 min 7,9 C 13,5 C
13.09.2012 19:29 13,4 C 69 % 1017,7 hPa 0,0 l/m 5,2 km/h (1 Bft) W-NW 285 0 min 7,8 C 13,4 C
13.09.2012 19:34 13,4 C 69 % 1017,7 hPa 0,0 l/m 0,4 km/h (0 Bft) W-NW 285 0 min 7,8 C 13,4 C
13.09.2012 19:39 13,3 C 70 % 1017,7 hPa 0,0 l/m 0,6 km/h (0 Bft) W 275 0 min 7,9 C 13,3 C
13.09.2012 19:44 13,2 C 70 % 1017,7 hPa 0,0 l/m 1,2 km/h (1 Bft) NW 305 0 min 7,9 C 13,2 C
13.09.2012 19:49 13,1 C 71 % 1017,7 hPa 0,0 l/m 0,4 km/h (0 Bft) W-NW 290 0 min 8,0 C 13,1 C
13.09.2012 19:54 13,1 C 71 % 1017,7 hPa 0,0 l/m 1,5 km/h (1 Bft) W 270 0 min 8,0 C 13,1 C
13.09.2012 19:59 13,0 C 71 % 1017,7 hPa 0,0 l/m 1,3 km/h (1 Bft) W 270 0 min 7,9 C 13,0 C
13.09.2012 20:04 13,0 C 72 % 1017,7 hPa 0,0 l/m 7,2 km/h (2 Bft) W 265 0 min 8,1 C 12,5 C
13.09.2012 20:09 12,9 C 72 % 1017,7 hPa 0,0 l/m 7,2 km/h (2 Bft) W 265 0 min 8,0 C 12,4 C
13.09.2012 20:14 12,9 C 72 % 1017,7 hPa 0,0 l/m 0,0 km/h (0 Bft) SW 230 0 min 8,0 C 12,9 C
13.09.2012 20:18 12,9 C 71 % 1017,7 hPa 0,0 l/m 0,0 km/h (0 Bft) SW 230 0 min 7,8 C 12,9 C
13.09.2012 20:23 12,8 C 71 % 1017,7 hPa 0,0 l/m 0,0 km/h (0 Bft) SW 230 0 min 7,7 C 12,8 C
13.09.2012 20:28 12,8 C 70 % 1017,7 hPa 0,0 l/m 0,0 km/h (0 Bft) SW 225 0 min 7,5 C 12,8 C
13.09.2012 20:33 12,7 C 70 % 1017,7 hPa 0,0 l/m 0,0 km/h (0 Bft) SW 230 0 min 7,4 C 12,7 C
13.09.2012 20:38 12,7 C 71 % 1017,7 hPa 0,0 l/m 0,0 km/h (0 Bft) SW 230 0 min 7,6 C 12,7 C
13.09.2012 20:43 12,6 C 71 % 1017,7 hPa 0,0 l/m 0,0 km/h (0 Bft) SW 230 0 min 7,5 C 12,6 C
13.09.2012 20:48 12,6 C 71 % 1017,7 hPa 0,0 l/m 0,0 km/h (0 Bft) SW 230 0 min 7,5 C 12,6 C
13.09.2012 20:53 12,6 C 71 % 1017,7 hPa 0,0 l/m 2,5 km/h (1 Bft) SW 235 0 min 7,5 C 12,6 C
13.09.2012 20:59 12,5 C 71 % 1017,7 hPa 0,0 l/m 0,7 km/h (0 Bft) W-SW 250 0 min 7,4 C 12,5 C
13.09.2012 21:04 12,5 C 72 % 1017,7 hPa 0,0 l/m 0,0 km/h (0 Bft) W 260 0 min 7,6 C 12,5 C
13.09.2012 21:09 12,4 C 72 % 1017,7 hPa 0,0 l/m 0,0 km/h (0 Bft) W-SW 250 0 min 7,5 C 12,4 C
13.09.2012 21:14 12,4 C 72 % 1017,7 hPa 0,0 l/m 0,4 km/h (0 Bft) W 260 0 min 7,5 C 12,4 C
13.09.2012 21:19 12,4 C 72 % 1017,7 hPa 0,0 l/m 0,0 km/h (0 Bft) W-SW 255 0 min 7,5 C 12,4 C
13.09.2012 21:24 12,3 C 72 % 1017,7 hPa 0,0 l/m 0,0 km/h (0 Bft) W-SW 250 0 min 7,4 C 12,3 C
13.09.2012 21:29 12,2 C 72 % 1017,7 hPa 0,0 l/m 0,2 km/h (0 Bft) W 270 0 min 7,3 C 12,2 C
13.09.2012 21:34 12,2 C 73 % 1017,7 hPa 0,0 l/m 7,4 km/h (2 Bft) NW 310 0 min 7,5 C 11,5 C
13.09.2012 21:39 12,2 C 73 % 1017,7 hPa 0,0 l/m 6,8 km/h (2 Bft) NW 305 0 min 7,5 C 11,9 C
13.09.2012 21:44 12,2 C 74 % 1017,7 hPa 0,0 l/m 7,5 km/h (2 Bft) NW 320 0 min 7,7 C 11,5 C
13.09.2012 21:49 12,2 C 74 % 1018,7 hPa 0,0 l/m 8,9 km/h (2 Bft) NW 320 0 min 7,7 C 10,6 C
13.09.2012 21:54 12,1 C 75 % 1018,7 hPa 0,0 l/m 8,9 km/h (2 Bft) NW 315 0 min 7,8 C 10,5 C
13.09.2012 21:59 12,1 C 75 % 1018,7 hPa 0,0 l/m 6,2 km/h (2 Bft) NW 305 0 min 7,8 C 12,1 C
13.09.2012 22:04 12,1 C 75 % 1018,7 hPa 0,0 l/m 4,7 km/h (1 Bft) W 270 0 min 7,8 C 12,1 C
13.09.2012 22:09 12,0 C 75 % 1018,7 hPa 0,0 l/m 4,3 km/h (1 Bft) W-SW 250 0 min 7,7 C 12,0 C
13.09.2012 22:14 11,9 C 76 % 1018,7 hPa 0,0 l/m 6,8 km/h (2 Bft) W-NW 290 0 min 7,8 C 11,6 C
13.09.2012 22:19 11,8 C 76 % 1018,7 hPa 0,0 l/m 0,7 km/h (0 Bft) W-SW 250 0 min 7,7 C 11,8 C
13.09.2012 22:24 11,7 C 75 % 1018,7 hPa 0,0 l/m 0,0 km/h (0 Bft) W-SW 250 0 min 7,4 C 11,7 C
13.09.2012 22:29 11,5 C 75 % 1017,7 hPa 0,0 l/m 0,0 km/h (0 Bft) W-SW 250 0 min 7,2 C 11,5 C
13.09.2012 22:34 11,3 C 75 % 1017,7 hPa 0,0 l/m 0,0 km/h (0 Bft) W-SW 250 0 min 7,0 C 11,3 C
13.09.2012 22:39 11,0 C 74 % 1018,7 hPa 0,0 l/m 0,0 km/h (0 Bft) W-SW 245 0 min 6,5 C 11,0 C
13.09.2012 22:44 10,9 C 74 % 1018,7 hPa 0,0 l/m 0,0 km/h (0 Bft) W-SW 245 0 min 6,5 C 10,9 C
13.09.2012 22:49 10,8 C 74 % 1018,7 hPa 0,0 l/m 0,0 km/h (0 Bft) W-SW 245 0 min 6,4 C 10,8 C
13.09.2012 22:54 10,6 C 74 % 1018,7 hPa 0,0 l/m 0,0 km/h (0 Bft) W-SW 245 0 min 6,2 C 10,6 C
13.09.2012 22:59 10,5 C 74 % 1018,7 hPa 0,0 l/m 0,0 km/h (0 Bft) W-SW 245 0 min 6,1 C 10,5 C
13.09.2012 23:04 10,3 C 75 % 1017,7 hPa 0,0 l/m 0,0 km/h (0 Bft) W-SW 245 0 min 6,1 C 10,3 C
13.09.2012 23:09 10,1 C 74 % 1017,7 hPa 0,0 l/m 0,0 km/h (0 Bft) W-SW 245 0 min 5,7 C 10,1 C
13.09.2012 23:14 10,1 C 74 % 1017,7 hPa 0,0 l/m 0,0 km/h (0 Bft) W-SW 245 0 min 5,7 C 10,1 C
13.09.2012 23:19 9,9 C 75 % 1017,7 hPa 0,0 l/m 0,0 km/h (0 Bft) W-SW 245 0 min 5,7 C 9,9 C
13.09.2012 23:24 9,7 C 75 % 1017,7 hPa 0,0 l/m 0,0 km/h (0 Bft) W-SW 245 0 min 5,5 C 9,7 C
13.09.2012 23:29 9,5 C 75 % 1017,7 hPa 0,0 l/m 0,0 km/h (0 Bft) W-SW 245 0 min 5,3 C 9,5 C
13.09.2012 23:34 9,5 C 76 % 1017,7 hPa 0,0 l/m 0,0 km/h (0 Bft) W-SW 250 0 min 5,5 C 9,5 C
13.09.2012 23:39 9,5 C 76 % 1018,7 hPa 0,0 l/m 0,0 km/h (0 Bft) W-SW 255 0 min 5,5 C 9,5 C
13.09.2012 23:44 9,6 C 76 % 1018,7 hPa 0,0 l/m 0,0 km/h (0 Bft) W-SW 255 0 min 5,6 C 9,6 C
13.09.2012 23:49 9,6 C 76 % 1018,7 hPa 0,0 l/m 0,0 km/h (0 Bft) W-SW 255 0 min 5,6 C 9,6 C
13.09.2012 23:54 9,7 C 78 % 1018,7 hPa 0,0 l/m 0,4 km/h (0 Bft) W 280 0 min 6,1 C 9,7 C
13.09.2012 23:59 9,8 C 79 % 1018,7 hPa 0,0 l/m 0,3 km/h (0 Bft) W 275 0 min 6,3 C 9,8 C
_ Min-Zeit 00:03 14:29 00:03 - 00:03 - - - 06:43 06:43
Minimum _ 0,0 C 44 % 1013,7 hPa - 0,0 km/h (0 Bft) - - - -1,9 C 1,5 C
_ Max-Zeit 14:24 07:48 21:49 00:03 18:49 - - 00:03 11:43 14:44
Maximum _ 19,5 C 82 % 1018,7 hPa 0,0 l/m 16,1 km/h
N (3 Bft)
- - 0 min 8,6 C 18,7 C
Durchschnitt _ 9,9 C 68 % 1015,7 hPa #0,0 l/m 2,4 km/h (1 Bft) W - #0 min. 4,1 C 9,6 C